sensor_id;sensor_type;location;lat;lon;timestamp;temperature;humidity
26186;DHT22;20067;48.764;9.176;2023-05-28T00:00:09;16.20;77.80
26186;DHT22;20067;48.764;9.176;2023-05-28T00:02:36;16.10;77.60
26186;DHT22;20067;48.764;9.176;2023-05-28T00:05:03;16.30;77.60
26186;DHT22;20067;48.764;9.176;2023-05-28T00:07:29;16.40;77.30
26186;DHT22;20067;48.764;9.176;2023-05-28T00:09:56;16.20;77.90
26186;DHT22;20067;48.764;9.176;2023-05-28T00:12:22;16.30;77.60
26186;DHT22;20067;48.764;9.176;2023-05-28T00:14:47;16.30;77.80
26186;DHT22;20067;48.764;9.176;2023-05-28T00:17:14;16.40;77.20
26186;DHT22;20067;48.764;9.176;2023-05-28T00:19:41;16.40;77.10
26186;DHT22;20067;48.764;9.176;2023-05-28T00:22:07;16.10;77.60
26186;DHT22;20067;48.764;9.176;2023-05-28T00:24:32;16.00;78.10
26186;DHT22;20067;48.764;9.176;2023-05-28T00:26:58;16.10;78.00
26186;DHT22;20067;48.764;9.176;2023-05-28T00:29:23;15.80;78.60
26186;DHT22;20067;48.764;9.176;2023-05-28T00:31:53;15.90;78.60
26186;DHT22;20067;48.764;9.176;2023-05-28T00:34:22;15.90;78.90
26186;DHT22;20067;48.764;9.176;2023-05-28T00:36:47;15.80;78.80
26186;DHT22;20067;48.764;9.176;2023-05-28T00:39:17;15.80;78.80
26186;DHT22;20067;48.764;9.176;2023-05-28T00:41:42;15.80;79.00
26186;DHT22;20067;48.764;9.176;2023-05-28T00:44:08;16.00;78.20
26186;DHT22;20067;48.764;9.176;2023-05-28T00:46:40;15.90;78.30
26186;DHT22;20067;48.764;9.176;2023-05-28T00:49:06;15.80;78.60
26186;DHT22;20067;48.764;9.176;2023-05-28T00:51:32;15.60;79.50
26186;DHT22;20067;48.764;9.176;2023-05-28T00:53:58;15.60;79.50
26186;DHT22;20067;48.764;9.176;2023-05-28T00:56:24;15.80;78.80
26186;DHT22;20067;48.764;9.176;2023-05-28T00:58:52;15.70;78.90
26186;DHT22;20067;48.764;9.176;2023-05-28T01:01:18;15.80;79.00
26186;DHT22;20067;48.764;9.176;2023-05-28T01:03:44;15.80;78.80
26186;DHT22;20067;48.764;9.176;2023-05-28T01:06:13;15.80;79.00
26186;DHT22;20067;48.764;9.176;2023-05-28T01:08:40;15.80;78.60
26186;DHT22;20067;48.764;9.176;2023-05-28T01:11:11;15.50;79.20
26186;DHT22;20067;48.764;9.176;2023-05-28T01:13:39;15.40;79.80
26186;DHT22;20067;48.764;9.176;2023-05-28T01:16:06;15.60;79.40
26186;DHT22;20067;48.764;9.176;2023-05-28T01:18:32;15.50;79.80
26186;DHT22;20067;48.764;9.176;2023-05-28T01:21:01;15.40;79.80
26186;DHT22;20067;48.764;9.176;2023-05-28T01:23:28;15.50;79.80
26186;DHT22;20067;48.764;9.176;2023-05-28T01:25:54;15.70;79.40
26186;DHT22;20067;48.764;9.176;2023-05-28T01:28:24;15.80;79.00
26186;DHT22;20067;48.764;9.176;2023-05-28T01:30:50;15.70;79.10
26186;DHT22;20067;48.764;9.176;2023-05-28T01:33:18;15.60;79.40
26186;DHT22;20067;48.764;9.176;2023-05-28T01:35:44;15.20;80.10
26186;DHT22;20067;48.764;9.176;2023-05-28T01:38:12;15.20;80.50
26186;DHT22;20067;48.764;9.176;2023-05-28T01:40:42;15.30;80.20
26186;DHT22;20067;48.764;9.176;2023-05-28T01:43:08;15.50;79.80
26186;DHT22;20067;48.764;9.176;2023-05-28T01:45:34;15.40;79.60
26186;DHT22;20067;48.764;9.176;2023-05-28T01:48:00;15.20;80.10
26186;DHT22;20067;48.764;9.176;2023-05-28T01:50:25;15.30;80.20
26186;DHT22;20067;48.764;9.176;2023-05-28T01:52:52;15.00;80.80
26186;DHT22;20067;48.764;9.176;2023-05-28T01:55:17;15.10;80.70
26186;DHT22;20067;48.764;9.176;2023-05-28T01:57:43;15.10;80.60
26186;DHT22;20067;48.764;9.176;2023-05-28T02:00:09;15.00;81.20
26186;DHT22;20067;48.764;9.176;2023-05-28T02:02:36;15.00;81.20
26186;DHT22;20067;48.764;9.176;2023-05-28T02:05:01;15.10;80.70
26186;DHT22;20067;48.764;9.176;2023-05-28T02:07:27;15.20;80.80
26186;DHT22;20067;48.764;9.176;2023-05-28T02:09:53;15.10;80.40
26186;DHT22;20067;48.764;9.176;2023-05-28T02:12:18;15.00;81.20
26186;DHT22;20067;48.764;9.176;2023-05-28T02:14:44;14.90;81.50
26186;DHT22;20067;48.764;9.176;2023-05-28T02:17:10;14.70;81.90
26186;DHT22;20067;48.764;9.176;2023-05-28T02:19:37;14.60;82.20
26186;DHT22;20067;48.764;9.176;2023-05-28T02:22:03;14.90;81.70
26186;DHT22;20067;48.764;9.176;2023-05-28T02:24:37;14.80;81.40
26186;DHT22;20067;48.764;9.176;2023-05-28T02:27:04;15.00;81.30
26186;DHT22;20067;48.764;9.176;2023-05-28T02:29:30;15.00;81.10
26186;DHT22;20067;48.764;9.176;2023-05-28T02:31:55;15.10;80.70
26186;DHT22;20067;48.764;9.176;2023-05-28T02:34:21;15.10;81.00
26186;DHT22;20067;48.764;9.176;2023-05-28T02:36:46;15.20;80.70
26186;DHT22;20067;48.764;9.176;2023-05-28T02:39:12;15.10;80.60
26186;DHT22;20067;48.764;9.176;2023-05-28T02:41:38;15.00;80.80
26186;DHT22;20067;48.764;9.176;2023-05-28T02:44:04;14.90;80.90
26186;DHT22;20067;48.764;9.176;2023-05-28T02:46:29;14.80;81.70
26186;DHT22;20067;48.764;9.176;2023-05-28T02:48:55;14.60;82.20
26186;DHT22;20067;48.764;9.176;2023-05-28T02:51:21;14.60;82.30
26186;DHT22;20067;48.764;9.176;2023-05-28T02:53:46;14.70;82.00
26186;DHT22;20067;48.764;9.176;2023-05-28T02:56:12;14.70;81.70
26186;DHT22;20067;48.764;9.176;2023-05-28T02:58:37;14.80;81.80
26186;DHT22;20067;48.764;9.176;2023-05-28T03:01:04;14.40;82.40
26186;DHT22;20067;48.764;9.176;2023-05-28T03:03:31;14.60;82.50
26186;DHT22;20067;48.764;9.176;2023-05-28T03:05:57;14.50;82.30
26186;DHT22;20067;48.764;9.176;2023-05-28T03:08:23;14.20;83.20
26186;DHT22;20067;48.764;9.176;2023-05-28T03:10:48;13.90;84.40
26186;DHT22;20067;48.764;9.176;2023-05-28T03:13:14;13.90;84.40
26186;DHT22;20067;48.764;9.176;2023-05-28T03:15:39;14.00;84.50
26186;DHT22;20067;48.764;9.176;2023-05-28T03:18:05;14.00;84.10
26186;DHT22;20067;48.764;9.176;2023-05-28T03:20:31;13.90;84.50
26186;DHT22;20067;48.764;9.176;2023-05-28T03:22:57;13.80;84.70
26186;DHT22;20067;48.764;9.176;2023-05-28T03:25:24;13.50;85.40
26186;DHT22;20067;48.764;9.176;2023-05-28T03:27:50;13.70;85.20
26186;DHT22;20067;48.764;9.176;2023-05-28T03:30:15;13.80;84.60
26186;DHT22;20067;48.764;9.176;2023-05-28T03:32:42;14.00;84.20
26186;DHT22;20067;48.764;9.176;2023-05-28T03:35:08;13.90;84.10
26186;DHT22;20067;48.764;9.176;2023-05-28T03:37:33;13.70;84.70
26186;DHT22;20067;48.764;9.176;2023-05-28T03:39:59;13.90;84.60
26186;DHT22;20067;48.764;9.176;2023-05-28T03:42:25;14.00;83.70
26186;DHT22;20067;48.764;9.176;2023-05-28T03:44:51;13.60;84.80
26186;DHT22;20067;48.764;9.176;2023-05-28T03:47:17;13.60;84.40
26186;DHT22;20067;48.764;9.176;2023-05-28T03:49:42;13.50;85.40
26186;DHT22;20067;48.764;9.176;2023-05-28T03:52:09;13.60;85.50
26186;DHT22;20067;48.764;9.176;2023-05-28T03:54:35;13.80;84.40
26186;DHT22;20067;48.764;9.176;2023-05-28T03:57:00;13.80;84.30
26186;DHT22;20067;48.764;9.176;2023-05-28T03:59:26;14.00;84.00
26186;DHT22;20067;48.764;9.176;2023-05-28T04:01:52;14.20;82.90
26186;DHT22;20067;48.764;9.176;2023-05-28T04:04:18;14.20;82.50
26186;DHT22;20067;48.764;9.176;2023-05-28T04:06:43;13.90;83.50
26186;DHT22;20067;48.764;9.176;2023-05-28T04:09:09;13.80;84.20
26186;DHT22;20067;48.764;9.176;2023-05-28T04:11:35;13.80;84.50
26186;DHT22;20067;48.764;9.176;2023-05-28T04:14:02;13.70;84.60
26186;DHT22;20067;48.764;9.176;2023-05-28T04:16:28;13.90;84.20
26186;DHT22;20067;48.764;9.176;2023-05-28T04:18:54;14.10;83.50
26186;DHT22;20067;48.764;9.176;2023-05-28T04:21:20;14.00;83.80
26186;DHT22;20067;48.764;9.176;2023-05-28T04:23:47;13.90;83.90
26186;DHT22;20067;48.764;9.176;2023-05-28T04:26:12;13.80;84.40
26186;DHT22;20067;48.764;9.176;2023-05-28T04:28:40;14.00;83.70
26186;DHT22;20067;48.764;9.176;2023-05-28T04:31:07;14.20;83.20
26186;DHT22;20067;48.764;9.176;2023-05-28T04:33:33;14.30;82.80
26186;DHT22;20067;48.764;9.176;2023-05-28T04:35:59;14.30;82.60
26186;DHT22;20067;48.764;9.176;2023-05-28T04:38:26;14.40;82.60
26186;DHT22;20067;48.764;9.176;2023-05-28T04:40:57;14.30;82.70
26186;DHT22;20067;48.764;9.176;2023-05-28T04:43:23;14.40;82.50
26186;DHT22;20067;48.764;9.176;2023-05-28T04:45:49;14.50;82.10
26186;DHT22;20067;48.764;9.176;2023-05-28T04:48:14;14.60;82.10
26186;DHT22;20067;48.764;9.176;2023-05-28T04:50:40;14.70;81.70
26186;DHT22;20067;48.764;9.176;2023-05-28T04:53:06;14.60;81.80
26186;DHT22;20067;48.764;9.176;2023-05-28T04:55:32;14.70;81.70
26186;DHT22;20067;48.764;9.176;2023-05-28T04:57:58;14.90;81.30
26186;DHT22;20067;48.764;9.176;2023-05-28T05:00:23;15.00;81.00
26186;DHT22;20067;48.764;9.176;2023-05-28T05:02:52;15.10;80.50
26186;DHT22;20067;48.764;9.176;2023-05-28T05:05:18;15.10;80.60
26186;DHT22;20067;48.764;9.176;2023-05-28T05:07:45;15.00;80.90
26186;DHT22;20067;48.764;9.176;2023-05-28T05:10:11;14.70;82.20
26186;DHT22;20067;48.764;9.176;2023-05-28T05:12:37;14.70;82.70
26186;DHT22;20067;48.764;9.176;2023-05-28T05:15:03;15.00;82.20
26186;DHT22;20067;48.764;9.176;2023-05-28T05:17:31;15.20;81.10
26186;DHT22;20067;48.764;9.176;2023-05-28T05:19:57;15.40;80.40
26186;DHT22;20067;48.764;9.176;2023-05-28T05:22:23;15.40;80.00
26186;DHT22;20067;48.764;9.176;2023-05-28T05:24:49;15.40;80.00
26186;DHT22;20067;48.764;9.176;2023-05-28T05:27:15;15.50;79.90
26186;DHT22;20067;48.764;9.176;2023-05-28T05:29:41;15.40;80.30
26186;DHT22;20067;48.764;9.176;2023-05-28T05:32:07;15.60;80.00
26186;DHT22;20067;48.764;9.176;2023-05-28T05:34:33;15.40;80.30
26186;DHT22;20067;48.764;9.176;2023-05-28T05:36:59;15.20;80.50
26186;DHT22;20067;48.764;9.176;2023-05-28T05:39:25;15.30;80.40
26186;DHT22;20067;48.764;9.176;2023-05-28T05:41:51;15.30;79.90
26186;DHT22;20067;48.764;9.176;2023-05-28T05:44:16;15.20;80.40
26186;DHT22;20067;48.764;9.176;2023-05-28T05:46:42;14.90;79.30
26186;DHT22;20067;48.764;9.176;2023-05-28T05:49:08;15.10;79.40
26186;DHT22;20067;48.764;9.176;2023-05-28T05:51:35;14.90;79.40
26186;DHT22;20067;48.764;9.176;2023-05-28T05:54:01;15.10;79.50
26186;DHT22;20067;48.764;9.176;2023-05-28T05:56:27;15.30;79.10
26186;DHT22;20067;48.764;9.176;2023-05-28T05:58:52;15.90;78.30
26186;DHT22;20067;48.764;9.176;2023-05-28T06:01:18;16.30;76.90
26186;DHT22;20067;48.764;9.176;2023-05-28T06:03:43;16.40;76.10
26186;DHT22;20067;48.764;9.176;2023-05-28T06:06:09;16.30;76.90
26186;DHT22;20067;48.764;9.176;2023-05-28T06:08:35;16.20;77.60
26186;DHT22;20067;48.764;9.176;2023-05-28T06:11:01;16.10;78.10
26186;DHT22;20067;48.764;9.176;2023-05-28T06:13:27;16.10;78.70
26186;DHT22;20067;48.764;9.176;2023-05-28T06:15:53;15.90;78.20
26186;DHT22;20067;48.764;9.176;2023-05-28T06:18:19;16.10;78.00
26186;DHT22;20067;48.764;9.176;2023-05-28T06:20:47;16.20;77.50
26186;DHT22;20067;48.764;9.176;2023-05-28T06:23:15;15.80;78.20
26186;DHT22;20067;48.764;9.176;2023-05-28T06:25:40;15.80;78.80
26186;DHT22;20067;48.764;9.176;2023-05-28T06:28:07;15.70;78.60
26186;DHT22;20067;48.764;9.176;2023-05-28T06:30:33;15.70;78.90
26186;DHT22;20067;48.764;9.176;2023-05-28T06:32:58;15.70;78.20
26186;DHT22;20067;48.764;9.176;2023-05-28T06:35:24;15.90;78.80
26186;DHT22;20067;48.764;9.176;2023-05-28T06:37:49;16.50;77.50
26186;DHT22;20067;48.764;9.176;2023-05-28T06:40:15;16.30;76.60
26186;DHT22;20067;48.764;9.176;2023-05-28T06:42:41;16.40;76.50
26186;DHT22;20067;48.764;9.176;2023-05-28T06:45:07;16.60;76.30
26186;DHT22;20067;48.764;9.176;2023-05-28T06:47:33;16.80;75.60
26186;DHT22;20067;48.764;9.176;2023-05-28T06:49:59;17.10;76.00
26186;DHT22;20067;48.764;9.176;2023-05-28T06:52:25;17.20;73.70
26186;DHT22;20067;48.764;9.176;2023-05-28T06:54:51;17.20;73.30
26186;DHT22;20067;48.764;9.176;2023-05-28T06:57:16;17.10;73.30
26186;DHT22;20067;48.764;9.176;2023-05-28T06:59:42;17.00;73.40
26186;DHT22;20067;48.764;9.176;2023-05-28T07:02:07;17.10;74.40
26186;DHT22;20067;48.764;9.176;2023-05-28T07:04:33;17.10;73.10
26186;DHT22;20067;48.764;9.176;2023-05-28T07:06:58;17.10;73.60
26186;DHT22;20067;48.764;9.176;2023-05-28T07:09:24;17.40;73.90
26186;DHT22;20067;48.764;9.176;2023-05-28T07:11:51;17.40;73.10
26186;DHT22;20067;48.764;9.176;2023-05-28T07:14:16;17.50;71.80
26186;DHT22;20067;48.764;9.176;2023-05-28T07:16:42;17.40;72.00
26186;DHT22;20067;48.764;9.176;2023-05-28T07:19:07;17.30;71.90
26186;DHT22;20067;48.764;9.176;2023-05-28T07:21:33;17.60;72.40
26186;DHT22;20067;48.764;9.176;2023-05-28T07:23:59;17.90;70.90
26186;DHT22;20067;48.764;9.176;2023-05-28T07:26:24;18.10;69.60
26186;DHT22;20067;48.764;9.176;2023-05-28T07:28:51;18.20;69.00
26186;DHT22;20067;48.764;9.176;2023-05-28T07:31:16;18.60;69.60
26186;DHT22;20067;48.764;9.176;2023-05-28T07:33:42;19.00;68.60
26186;DHT22;20067;48.764;9.176;2023-05-28T07:36:08;19.70;66.40
26186;DHT22;20067;48.764;9.176;2023-05-28T07:38:34;19.60;66.00
26186;DHT22;20067;48.764;9.176;2023-05-28T07:40:59;19.30;66.00
26186;DHT22;20067;48.764;9.176;2023-05-28T07:43:25;19.50;66.20
26186;DHT22;20067;48.764;9.176;2023-05-28T07:45:51;19.20;65.40
26186;DHT22;20067;48.764;9.176;2023-05-28T07:48:16;19.60;67.80
26186;DHT22;20067;48.764;9.176;2023-05-28T07:50:42;19.30;65.70
26186;DHT22;20067;48.764;9.176;2023-05-28T07:53:08;19.30;65.30
26186;DHT22;20067;48.764;9.176;2023-05-28T07:55:34;19.50;64.90
26186;DHT22;20067;48.764;9.176;2023-05-28T07:58:00;20.10;64.40
26186;DHT22;20067;48.764;9.176;2023-05-28T08:00:26;20.40;63.20
26186;DHT22;20067;48.764;9.176;2023-05-28T08:02:52;20.30;63.30
26186;DHT22;20067;48.764;9.176;2023-05-28T08:05:18;20.50;64.40
26186;DHT22;20067;48.764;9.176;2023-05-28T08:07:44;21.30;61.50
26186;DHT22;20067;48.764;9.176;2023-05-28T08:10:10;20.80;62.60
26186;DHT22;20067;48.764;9.176;2023-05-28T08:12:36;20.50;63.30
26186;DHT22;20067;48.764;9.176;2023-05-28T08:15:01;20.70;62.50
26186;DHT22;20067;48.764;9.176;2023-05-28T08:17:30;20.60;63.10
26186;DHT22;20067;48.764;9.176;2023-05-28T08:19:57;21.00;63.10
26186;DHT22;20067;48.764;9.176;2023-05-28T08:22:23;20.60;63.30
26186;DHT22;20067;48.764;9.176;2023-05-28T08:24:48;20.60;62.50
26186;DHT22;20067;48.764;9.176;2023-05-28T08:27:14;20.80;63.10
26186;DHT22;20067;48.764;9.176;2023-05-28T08:29:39;21.40;65.10
26186;DHT22;20067;48.764;9.176;2023-05-28T08:32:06;21.60;61.60
26186;DHT22;20067;48.764;9.176;2023-05-28T08:34:31;21.70;61.90
26186;DHT22;20067;48.764;9.176;2023-05-28T08:37:00;21.40;61.30
26186;DHT22;20067;48.764;9.176;2023-05-28T08:39:25;21.60;60.90
26186;DHT22;20067;48.764;9.176;2023-05-28T08:41:52;21.60;61.40
26186;DHT22;20067;48.764;9.176;2023-05-28T08:44:19;21.80;61.60
26186;DHT22;20067;48.764;9.176;2023-05-28T08:46:45;21.70;60.00
26186;DHT22;20067;48.764;9.176;2023-05-28T08:49:13;21.80;60.00
26186;DHT22;20067;48.764;9.176;2023-05-28T08:51:42;21.60;60.40
26186;DHT22;20067;48.764;9.176;2023-05-28T08:54:08;21.60;60.80
26186;DHT22;20067;48.764;9.176;2023-05-28T08:56:35;21.80;60.20
26186;DHT22;20067;48.764;9.176;2023-05-28T08:59:01;21.90;61.00
26186;DHT22;20067;48.764;9.176;2023-05-28T09:01:29;22.20;61.40
26186;DHT22;20067;48.764;9.176;2023-05-28T09:03:55;22.90;61.30
26186;DHT22;20067;48.764;9.176;2023-05-28T09:06:21;23.50;57.70
26186;DHT22;20067;48.764;9.176;2023-05-28T09:08:49;22.80;58.40
26186;DHT22;20067;48.764;9.176;2023-05-28T09:11:18;22.30;59.90
26186;DHT22;20067;48.764;9.176;2023-05-28T09:13:48;22.50;59.30
26186;DHT22;20067;48.764;9.176;2023-05-28T09:16:21;23.10;58.30
26186;DHT22;20067;48.764;9.176;2023-05-28T09:18:51;23.70;57.50
26186;DHT22;20067;48.764;9.176;2023-05-28T09:21:20;23.60;58.00
26186;DHT22;20067;48.764;9.176;2023-05-28T09:23:50;23.30;58.20
26186;DHT22;20067;48.764;9.176;2023-05-28T09:26:16;23.40;60.00
26186;DHT22;20067;48.764;9.176;2023-05-28T09:28:45;24.00;57.10
26186;DHT22;20067;48.764;9.176;2023-05-28T09:31:10;23.90;57.10
26186;DHT22;20067;48.764;9.176;2023-05-28T09:33:44;24.10;58.10
26186;DHT22;20067;48.764;9.176;2023-05-28T09:36:10;24.30;56.40
26186;DHT22;20067;48.764;9.176;2023-05-28T09:38:41;23.20;58.00
26186;DHT22;20067;48.764;9.176;2023-05-28T09:41:23;23.00;58.80
26186;DHT22;20067;48.764;9.176;2023-05-28T09:43:57;23.00;59.30
26186;DHT22;20067;48.764;9.176;2023-05-28T09:46:27;23.00;61.60
26186;DHT22;20067;48.764;9.176;2023-05-28T09:48:53;23.20;60.60
26186;DHT22;20067;48.764;9.176;2023-05-28T09:51:20;23.60;58.90
26186;DHT22;20067;48.764;9.176;2023-05-28T09:53:49;23.40;58.20
26186;DHT22;20067;48.764;9.176;2023-05-28T09:56:19;24.10;57.60
26186;DHT22;20067;48.764;9.176;2023-05-28T09:58:47;24.80;57.30
26186;DHT22;20067;48.764;9.176;2023-05-28T10:01:19;24.90;59.10
26186;DHT22;20067;48.764;9.176;2023-05-28T10:03:49;24.20;55.00
26186;DHT22;20067;48.764;9.176;2023-05-28T10:06:21;23.70;56.50
26186;DHT22;20067;48.764;9.176;2023-05-28T10:08:51;24.20;55.40
26186;DHT22;20067;48.764;9.176;2023-05-28T10:11:22;23.90;54.70
26186;DHT22;20067;48.764;9.176;2023-05-28T10:13:48;24.10;58.70
26186;DHT22;20067;48.764;9.176;2023-05-28T10:16:14;24.50;55.90
26186;DHT22;20067;48.764;9.176;2023-05-28T10:18:41;24.60;54.50
26186;DHT22;20067;48.764;9.176;2023-05-28T10:21:07;24.40;53.30
26186;DHT22;20067;48.764;9.176;2023-05-28T10:23:35;24.50;53.70
26186;DHT22;20067;48.764;9.176;2023-05-28T10:26:01;25.00;54.90
26186;DHT22;20067;48.764;9.176;2023-05-28T10:28:29;24.60;53.70
26186;DHT22;20067;48.764;9.176;2023-05-28T10:31:08;24.40;53.60
26186;DHT22;20067;48.764;9.176;2023-05-28T10:33:40;24.40;53.70
26186;DHT22;20067;48.764;9.176;2023-05-28T10:36:10;25.20;51.90
26186;DHT22;20067;48.764;9.176;2023-05-28T10:38:57;25.60;51.10
26186;DHT22;20067;48.764;9.176;2023-05-28T10:41:31;25.70;50.50
26186;DHT22;20067;48.764;9.176;2023-05-28T10:44:05;26.40;49.10
26186;DHT22;20067;48.764;9.176;2023-05-28T10:46:38;27.60;47.70
26186;DHT22;20067;48.764;9.176;2023-05-28T10:49:16;28.60;47.10
26186;DHT22;20067;48.764;9.176;2023-05-28T11:02:06;29.70;44.50
26186;DHT22;20067;48.764;9.176;2023-05-28T11:04:35;30.10;44.00
26186;DHT22;20067;48.764;9.176;2023-05-28T11:07:01;30.60;43.10
26186;DHT22;20067;48.764;9.176;2023-05-28T11:09:27;30.90;43.10
26186;DHT22;20067;48.764;9.176;2023-05-28T11:11:58;32.30;41.30
26186;DHT22;20067;48.764;9.176;2023-05-28T11:14:24;32.80;39.40
26186;DHT22;20067;48.764;9.176;2023-05-28T11:16:50;32.80;39.50
26186;DHT22;20067;48.764;9.176;2023-05-28T11:19:15;32.90;40.90
26186;DHT22;20067;48.764;9.176;2023-05-28T11:21:51;33.80;38.60
26186;DHT22;20067;48.764;9.176;2023-05-28T11:24:17;34.20;38.50
26186;DHT22;20067;48.764;9.176;2023-05-28T11:26:43;36.60;37.50
26186;DHT22;20067;48.764;9.176;2023-05-28T11:29:09;35.40;36.60
26186;DHT22;20067;48.764;9.176;2023-05-28T11:31:42;36.40;37.50
26186;DHT22;20067;48.764;9.176;2023-05-28T11:34:11;36.20;35.60
26186;DHT22;20067;48.764;9.176;2023-05-28T11:36:43;34.30;38.50
26186;DHT22;20067;48.764;9.176;2023-05-28T11:39:10;34.20;39.20
26186;DHT22;20067;48.764;9.176;2023-05-28T11:41:36;32.60;40.50
26186;DHT22;20067;48.764;9.176;2023-05-28T11:44:01;32.70;40.50
26186;DHT22;20067;48.764;9.176;2023-05-28T11:46:27;33.00;41.20
26186;DHT22;20067;48.764;9.176;2023-05-28T11:48:53;32.70;40.30
26186;DHT22;20067;48.764;9.176;2023-05-28T11:51:19;33.70;40.50
26186;DHT22;20067;48.764;9.176;2023-05-28T11:53:46;34.00;38.50
26186;DHT22;20067;48.764;9.176;2023-05-28T11:56:12;34.30;40.30
26186;DHT22;20067;48.764;9.176;2023-05-28T11:58:43;36.80;35.50
26186;DHT22;20067;48.764;9.176;2023-05-28T12:01:15;38.90;33.90
26186;DHT22;20067;48.764;9.176;2023-05-28T12:03:41;39.20;33.60
26186;DHT22;20067;48.764;9.176;2023-05-28T12:06:07;40.60;34.50
26186;DHT22;20067;48.764;9.176;2023-05-28T12:08:33;40.10;31.10
26186;DHT22;20067;48.764;9.176;2023-05-28T12:11:02;37.30;32.40
26186;DHT22;20067;48.764;9.176;2023-05-28T12:13:34;36.90;33.00
26186;DHT22;20067;48.764;9.176;2023-05-28T12:16:11;36.50;33.40
26186;DHT22;20067;48.764;9.176;2023-05-28T12:18:41;36.90;31.90
26186;DHT22;20067;48.764;9.176;2023-05-28T12:21:14;34.80;34.10
26186;DHT22;20067;48.764;9.176;2023-05-28T12:23:46;37.00;35.90
26186;DHT22;20067;48.764;9.176;2023-05-28T12:26:14;35.70;32.90
26186;DHT22;20067;48.764;9.176;2023-05-28T12:28:40;35.30;36.00
26186;DHT22;20067;48.764;9.176;2023-05-28T12:31:07;35.10;33.30
26186;DHT22;20067;48.764;9.176;2023-05-28T12:33:33;35.10;33.40
26186;DHT22;20067;48.764;9.176;2023-05-28T12:35:59;34.90;35.20
26186;DHT22;20067;48.764;9.176;2023-05-28T12:38:28;32.30;37.20
26186;DHT22;20067;48.764;9.176;2023-05-28T12:40:53;33.10;38.00
26186;DHT22;20067;48.764;9.176;2023-05-28T12:43:19;34.30;36.70
26186;DHT22;20067;48.764;9.176;2023-05-28T12:45:46;35.30;35.50
26186;DHT22;20067;48.764;9.176;2023-05-28T12:48:12;35.00;36.40
26186;DHT22;20067;48.764;9.176;2023-05-28T12:50:37;35.90;35.30
26186;DHT22;20067;48.764;9.176;2023-05-28T12:53:03;34.90;36.20
26186;DHT22;20067;48.764;9.176;2023-05-28T12:55:30;34.00;37.20
26186;DHT22;20067;48.764;9.176;2023-05-28T12:57:56;34.10;37.20
26186;DHT22;20067;48.764;9.176;2023-05-28T13:00:22;34.80;36.40
26186;DHT22;20067;48.764;9.176;2023-05-28T13:02:50;36.50;34.60
26186;DHT22;20067;48.764;9.176;2023-05-28T13:05:15;38.50;32.30
26186;DHT22;20067;48.764;9.176;2023-05-28T13:07:42;37.80;32.80
26186;DHT22;20067;48.764;9.176;2023-05-28T13:10:08;36.30;33.50
26186;DHT22;20067;48.764;9.176;2023-05-28T13:12:35;36.20;33.30
26186;DHT22;20067;48.764;9.176;2023-05-28T13:15:03;35.70;34.10
26186;DHT22;20067;48.764;9.176;2023-05-28T13:17:29;36.10;33.50
26186;DHT22;20067;48.764;9.176;2023-05-28T13:19:54;36.30;32.90
26186;DHT22;20067;48.764;9.176;2023-05-28T13:22:20;36.10;32.90
26186;DHT22;20067;48.764;9.176;2023-05-28T13:24:46;34.30;35.30
26186;DHT22;20067;48.764;9.176;2023-05-28T13:27:12;34.50;36.30
26186;DHT22;20067;48.764;9.176;2023-05-28T13:29:38;34.60;35.40
26186;DHT22;20067;48.764;9.176;2023-05-28T13:32:03;35.30;34.40
26186;DHT22;20067;48.764;9.176;2023-05-28T13:34:29;34.20;36.00
26186;DHT22;20067;48.764;9.176;2023-05-28T13:36:55;35.50;35.20
26186;DHT22;20067;48.764;9.176;2023-05-28T13:39:20;36.20;34.70
26186;DHT22;20067;48.764;9.176;2023-05-28T13:41:48;34.80;34.70
26186;DHT22;20067;48.764;9.176;2023-05-28T13:44:14;34.50;35.50
26186;DHT22;20067;48.764;9.176;2023-05-28T13:46:40;35.60;34.10
26186;DHT22;20067;48.764;9.176;2023-05-28T13:49:06;35.60;34.40
26186;DHT22;20067;48.764;9.176;2023-05-28T13:51:31;35.80;34.20
26186;DHT22;20067;48.764;9.176;2023-05-28T13:53:57;35.60;33.80
26186;DHT22;20067;48.764;9.176;2023-05-28T13:56:23;36.20;32.70
26186;DHT22;20067;48.764;9.176;2023-05-28T13:58:48;35.90;34.30
26186;DHT22;20067;48.764;9.176;2023-05-28T14:01:14;35.40;33.80
26186;DHT22;20067;48.764;9.176;2023-05-28T14:03:39;34.80;34.50
26186;DHT22;20067;48.764;9.176;2023-05-28T14:06:10;34.60;34.70
26186;DHT22;20067;48.764;9.176;2023-05-28T14:08:36;34.50;34.10
26186;DHT22;20067;48.764;9.176;2023-05-28T14:11:02;33.10;35.60
26186;DHT22;20067;48.764;9.176;2023-05-28T14:13:28;34.50;34.40
26186;DHT22;20067;48.764;9.176;2023-05-28T14:15:57;33.50;35.50
26186;DHT22;20067;48.764;9.176;2023-05-28T14:18:23;34.00;35.10
26186;DHT22;20067;48.764;9.176;2023-05-28T14:20:48;32.70;35.70
26186;DHT22;20067;48.764;9.176;2023-05-28T14:23:14;32.70;36.30
26186;DHT22;20067;48.764;9.176;2023-05-28T14:25:40;32.80;36.60
26186;DHT22;20067;48.764;9.176;2023-05-28T14:28:05;32.00;36.70
26186;DHT22;20067;48.764;9.176;2023-05-28T14:30:31;30.20;39.00
26186;DHT22;20067;48.764;9.176;2023-05-28T14:32:56;29.30;40.40
26186;DHT22;20067;48.764;9.176;2023-05-28T14:35:22;28.40;42.70
26186;DHT22;20067;48.764;9.176;2023-05-28T14:37:48;28.60;42.70
26186;DHT22;20067;48.764;9.176;2023-05-28T14:40:18;28.90;41.90
26186;DHT22;20067;48.764;9.176;2023-05-28T14:42:44;29.30;42.20
26186;DHT22;20067;48.764;9.176;2023-05-28T14:45:11;29.00;41.70
26186;DHT22;20067;48.764;9.176;2023-05-28T14:47:36;28.10;42.60
26186;DHT22;20067;48.764;9.176;2023-05-28T14:50:02;27.80;43.70
26186;DHT22;20067;48.764;9.176;2023-05-28T14:52:29;27.70;44.00
26186;DHT22;20067;48.764;9.176;2023-05-28T14:54:56;27.50;43.80
26186;DHT22;20067;48.764;9.176;2023-05-28T14:57:23;27.70;44.20
26186;DHT22;20067;48.764;9.176;2023-05-28T14:59:49;28.10;43.30
26186;DHT22;20067;48.764;9.176;2023-05-28T15:02:15;28.40;42.60
26186;DHT22;20067;48.764;9.176;2023-05-28T15:04:41;27.90;43.20
26186;DHT22;20067;48.764;9.176;2023-05-28T15:07:08;27.90;44.50
26186;DHT22;20067;48.764;9.176;2023-05-28T15:09:34;28.00;43.90
26186;DHT22;20067;48.764;9.176;2023-05-28T15:12:00;28.00;45.00
26186;DHT22;20067;48.764;9.176;2023-05-28T15:14:25;27.80;44.30
26186;DHT22;20067;48.764;9.176;2023-05-28T15:16:55;27.50;44.80
26186;DHT22;20067;48.764;9.176;2023-05-28T15:19:21;27.70;45.70
26186;DHT22;20067;48.764;9.176;2023-05-28T15:21:48;27.30;45.40
26186;DHT22;20067;48.764;9.176;2023-05-28T15:24:14;27.20;45.60
26186;DHT22;20067;48.764;9.176;2023-05-28T15:26:39;26.90;45.50
26186;DHT22;20067;48.764;9.176;2023-05-28T15:29:05;26.70;46.20
26186;DHT22;20067;48.764;9.176;2023-05-28T15:31:30;27.10;45.70
26186;DHT22;20067;48.764;9.176;2023-05-28T15:33:56;27.30;45.20
26186;DHT22;20067;48.764;9.176;2023-05-28T15:36:22;27.20;45.00